createdAt,value
2023-02-19T00:02:10.008Z,10.92
2023-02-19T00:04:37.059Z,10.96
2023-02-19T00:07:04.068Z,10.97
2023-02-19T00:09:31.768Z,11.00
2023-02-19T00:11:58.698Z,11.00
2023-02-19T00:14:25.648Z,11.00
2023-02-19T00:16:52.536Z,11.02
2023-02-19T00:19:21.285Z,11.00
2023-02-19T00:21:51.505Z,11.01
2023-02-19T00:24:21.584Z,11.01
2023-02-19T00:26:49.092Z,11.02
2023-02-19T00:29:21.587Z,11.01
2023-02-19T00:31:49.155Z,11.01
2023-02-19T00:34:16.324Z,10.98
2023-02-19T00:36:44.439Z,10.93
2023-02-19T00:39:15.922Z,10.92
2023-02-19T00:41:43.539Z,10.94
2023-02-19T00:44:12.164Z,10.90
2023-02-19T00:46:47.901Z,10.89
2023-02-19T00:49:24.446Z,10.87
2023-02-19T00:51:53.214Z,10.85
2023-02-19T00:54:22.574Z,10.84
2023-02-19T00:56:50.375Z,10.83
2023-02-19T00:59:17.673Z,10.84
2023-02-19T01:01:46.205Z,10.81
2023-02-19T01:04:13.598Z,10.82
2023-02-19T01:06:41.212Z,10.83
2023-02-19T01:09:08.479Z,10.82
2023-02-19T01:11:35.876Z,10.80
2023-02-19T01:14:04.819Z,10.79
2023-02-19T01:16:32.312Z,10.75
2023-02-19T01:18:59.978Z,10.73
2023-02-19T01:21:30.495Z,10.73
2023-02-19T01:23:58.851Z,10.73
2023-02-19T01:26:31.490Z,10.81
2023-02-19T01:29:00.909Z,10.86
2023-02-19T01:31:28.660Z,10.84
2023-02-19T01:33:59.711Z,10.84
2023-02-19T01:36:28.195Z,10.85
2023-02-19T01:38:55.577Z,10.87
2023-02-19T01:41:25.535Z,10.85
2023-02-19T01:44:08.082Z,10.85
2023-02-19T01:46:41.188Z,10.85
2023-02-19T01:49:31.957Z,10.83
2023-02-19T01:52:12.688Z,10.80
2023-02-19T01:54:41.479Z,10.78
2023-02-19T01:57:17.344Z,10.78
2023-02-19T01:59:47.672Z,10.79
2023-02-19T02:02:14.666Z,10.77
2023-02-19T02:04:41.939Z,10.78
2023-02-19T02:07:29.398Z,10.80
2023-02-19T02:10:15.489Z,10.83
2023-02-19T02:12:42.619Z,10.77
2023-02-19T02:15:10.080Z,10.77
2023-02-19T02:18:16.417Z,10.72
2023-02-19T02:21:08.024Z,10.63
2023-02-19T02:24:32.380Z,10.62
2023-02-19T02:27:24.886Z,10.62
2023-02-19T02:30:41.700Z,10.63
2023-02-19T02:33:17.917Z,10.64
2023-02-19T02:36:01.531Z,10.64
2023-02-19T02:38:33.205Z,10.66
2023-02-19T02:41:01.864Z,10.70
2023-02-19T02:43:30.081Z,10.75
2023-02-19T02:45:57.174Z,10.80
2023-02-19T02:48:53.919Z,10.81
2023-02-19T02:51:33.673Z,10.82
2023-02-19T02:54:33.335Z,10.83
2023-02-19T02:57:07.014Z,10.87
2023-02-19T02:59:39.896Z,10.89
2023-02-19T03:02:22.671Z,10.93
2023-02-19T03:05:17.216Z,10.93
2023-02-19T03:07:55.192Z,10.93
2023-02-19T03:10:31.964Z,10.97
2023-02-19T03:13:21.251Z,10.94
2023-02-19T03:16:13.878Z,10.94
2023-02-19T03:19:02.487Z,10.91
2023-02-19T03:21:29.864Z,10.94
2023-02-19T03:24:16.220Z,10.95
2023-02-19T03:26:45.706Z,10.97
2023-02-19T03:29:24.147Z,10.98
2023-02-19T03:31:59.232Z,11.00
2023-02-19T03:34:44.318Z,11.00
2023-02-19T03:37:37.131Z,11.04
2023-02-19T03:40:04.725Z,11.03
2023-02-19T03:43:13.010Z,11.07
2023-02-19T03:46:15.428Z,11.08
2023-02-19T03:48:59.575Z,11.08
2023-02-19T03:52:04.569Z,11.05
2023-02-19T03:55:18.315Z,11.10
2023-02-19T03:57:56.508Z,11.09
2023-02-19T04:00:30.663Z,11.09
2023-02-19T04:03:41.608Z,11.05
2023-02-19T04:06:23.725Z,11.03
2023-02-19T04:08:55.695Z,11.02
2023-02-19T04:11:25.447Z,11.02
2023-02-19T04:14:13.374Z,11.02
2023-02-19T04:16:45.712Z,11.03
2023-02-19T04:19:18.330Z,11.05
2023-02-19T04:21:46.856Z,11.07
2023-02-19T04:24:39.129Z,11.05
2023-02-19T04:27:07.147Z,11.08
2023-02-19T04:29:34.155Z,11.05
2023-02-19T04:32:01.528Z,11.09
2023-02-19T04:34:28.455Z,10.99
2023-02-19T04:36:55.437Z,10.98
2023-02-19T04:39:22.558Z,10.93
2023-02-19T04:41:49.497Z,10.91
2023-02-19T04:44:16.362Z,10.87
2023-02-19T04:46:43.313Z,10.86
2023-02-19T04:49:10.598Z,10.79
2023-02-19T04:51:38.563Z,10.73
2023-02-19T04:54:05.759Z,10.73
2023-02-19T04:56:33.055Z,10.73
2023-02-19T04:59:00.123Z,10.75
2023-02-19T05:01:27.257Z,10.73
2023-02-19T05:03:54.199Z,10.75
2023-02-19T05:06:21.158Z,10.71
2023-02-19T05:08:48.668Z,10.68
2023-02-19T05:11:15.792Z,10.67
2023-02-19T05:13:42.766Z,10.67
2023-02-19T05:16:16.286Z,10.67
2023-02-19T05:18:46.655Z,10.62
2023-02-19T05:21:15.363Z,10.60
2023-02-19T05:23:43.169Z,10.59
2023-02-19T05:26:22.498Z,10.57
2023-02-19T05:28:52.722Z,10.54
2023-02-19T05:31:20.613Z,10.52
2023-02-19T05:33:51.077Z,10.54
2023-02-19T05:36:20.942Z,10.53
2023-02-19T05:38:52.847Z,10.54
2023-02-19T05:41:29.135Z,10.53
2023-02-19T05:43:57.476Z,10.47
2023-02-19T05:46:29.203Z,10.40
2023-02-19T05:48:58.126Z,10.40
2023-02-19T05:51:26.649Z,10.42
2023-02-19T05:53:54.018Z,10.45
2023-02-19T05:56:36.635Z,10.45
2023-02-19T05:59:17.208Z,10.48
2023-02-19T06:01:44.658Z,10.47
2023-02-19T06:04:12.511Z,10.46
2023-02-19T06:06:39.879Z,10.50
2023-02-19T06:09:08.338Z,10.51
2023-02-19T06:11:36.253Z,10.52
2023-02-19T06:14:03.301Z,10.56
2023-02-19T06:16:32.127Z,10.57
2023-02-19T06:18:59.550Z,10.60
2023-02-19T06:21:26.433Z,10.60
2023-02-19T06:23:53.704Z,10.60
2023-02-19T06:26:23.989Z,10.62
2023-02-19T06:28:53.441Z,10.63
2023-02-19T06:31:22.735Z,10.67
2023-02-19T06:33:50.710Z,10.68
2023-02-19T06:36:20.328Z,10.69
2023-02-19T06:38:47.712Z,10.69
2023-02-19T06:41:15.652Z,10.73
2023-02-19T06:43:42.836Z,10.80
2023-02-19T06:46:11.824Z,10.83
2023-02-19T06:48:40.948Z,10.91
2023-02-19T06:51:08.019Z,10.96
2023-02-19T06:53:35.102Z,11.01
2023-02-19T06:56:06.396Z,11.02
2023-02-19T06:58:34.315Z,11.10
2023-02-19T07:01:01.523Z,11.12
2023-02-19T07:03:28.523Z,11.15
2023-02-19T07:05:55.702Z,11.21
2023-02-19T07:08:22.767Z,11.28
2023-02-19T07:10:59.183Z,11.28
2023-02-19T07:13:27.382Z,11.32
2023-02-19T07:16:04.764Z,11.35
2023-02-19T07:18:32.730Z,11.38
2023-02-19T07:21:09.613Z,11.45
2023-02-19T07:23:37.513Z,11.46
2023-02-19T07:26:07.709Z,11.50
2023-02-19T07:28:34.636Z,11.51
2023-02-19T07:31:03.829Z,11.59
2023-02-19T07:33:31.616Z,11.59
2023-02-19T07:35:58.632Z,11.61
2023-02-19T07:38:27.017Z,11.67
2023-02-19T07:41:00.529Z,11.69
2023-02-19T07:43:33.115Z,11.71
2023-02-19T07:46:05.067Z,11.78
2023-02-19T07:48:32.131Z,11.80
2023-02-19T07:51:01.711Z,11.86
2023-02-19T07:53:29.817Z,11.90
2023-02-19T07:56:01.983Z,11.93
2023-02-19T07:58:30.020Z,11.92
2023-02-19T08:00:57.329Z,11.90
2023-02-19T08:03:24.531Z,11.82
2023-02-19T08:05:53.763Z,11.72
2023-02-19T08:08:20.893Z,11.67
2023-02-19T08:11:06.274Z,11.65
2023-02-19T08:13:34.189Z,11.64
2023-02-19T08:16:16.328Z,11.66
2023-02-19T08:18:47.318Z,11.63
2023-02-19T08:21:14.949Z,11.61
2023-02-19T08:23:41.891Z,11.64
2023-02-19T08:26:09.860Z,11.63
2023-02-19T08:28:36.859Z,11.61
2023-02-19T08:31:07.152Z,11.63
2023-02-19T08:33:34.773Z,11.69
2023-02-19T08:36:05.071Z,11.76
2023-02-19T08:38:35.882Z,11.82
2023-02-19T08:41:11.563Z,11.94
2023-02-19T08:43:40.427Z,12.01
2023-02-19T08:46:10.112Z,12.02
2023-02-19T08:48:38.201Z,12.08
2023-02-19T08:51:09.789Z,12.12
2023-02-19T08:53:38.664Z,12.17
2023-02-19T08:56:12.617Z,12.17
2023-02-19T08:58:40.000Z,12.16
2023-02-19T09:01:16.650Z,12.13
2023-02-19T09:03:44.238Z,12.04
2023-02-19T09:06:18.554Z,12.05
2023-02-19T09:08:46.132Z,12.04
2023-02-19T09:11:14.311Z,12.08
2023-02-19T09:13:42.120Z,12.09
2023-02-19T09:16:10.349Z,12.24
2023-02-19T09:18:37.442Z,12.35
2023-02-19T09:21:05.907Z,12.47
2023-02-19T09:23:34.796Z,12.57
2023-02-19T09:26:06.623Z,12.76
2023-02-19T09:28:33.787Z,12.92
2023-02-19T09:31:11.402Z,13.08
2023-02-19T09:33:45.269Z,13.18
2023-02-19T09:36:14.829Z,13.19
2023-02-19T09:38:42.100Z,13.22
2023-02-19T09:41:31.450Z,13.20
2023-02-19T09:44:00.987Z,13.13
2023-02-19T09:46:56.973Z,13.17
2023-02-19T09:49:34.254Z,13.23
2023-02-19T09:52:12.339Z,13.26
2023-02-19T09:54:40.884Z,13.42
2023-02-19T09:57:19.311Z,13.56
2023-02-19T10:00:00.398Z,13.67
2023-02-19T10:02:30.144Z,13.63
2023-02-19T10:04:58.953Z,13.61
2023-02-19T10:07:40.931Z,13.55
2023-02-19T10:10:13.968Z,13.47
2023-02-19T10:12:50.363Z,13.32
2023-02-19T10:15:28.104Z,13.02
2023-02-19T10:17:55.442Z,12.94
2023-02-19T10:20:26.677Z,12.97
2023-02-19T10:23:06.983Z,13.08
2023-02-19T10:25:35.676Z,13.23
2023-02-19T10:28:03.268Z,13.25
2023-02-19T10:30:34.963Z,13.22
2023-02-19T10:33:13.758Z,13.15
2023-02-19T10:36:06.862Z,13.09
2023-02-19T10:38:37.212Z,12.95
2023-02-19T10:41:17.666Z,12.93
2023-02-19T10:44:06.869Z,12.61
2023-02-19T10:46:44.424Z,12.38
2023-02-19T10:49:32.272Z,12.11
2023-02-19T10:52:17.584Z,11.90
2023-02-19T10:54:46.668Z,11.72
2023-02-19T10:57:21.022Z,11.62
2023-02-19T11:00:17.866Z,11.44
2023-02-19T11:02:45.463Z,11.30
2023-02-19T11:05:14.385Z,11.27
2023-02-19T11:07:55.930Z,11.17
2023-02-19T11:10:42.230Z,11.09
2023-02-19T11:13:18.449Z,11.05
2023-02-19T11:15:53.387Z,11.02
2023-02-19T11:18:31.995Z,11.01
2023-02-19T11:21:07.529Z,11.00
2023-02-19T11:23:47.331Z,11.00
2023-02-19T11:26:23.089Z,11.01
2023-02-19T11:29:01.841Z,10.92
2023-02-19T11:31:34.148Z,10.88
2023-02-19T11:34:29.832Z,10.91
2023-02-19T11:37:15.309Z,10.94
2023-02-19T11:39:45.596Z,10.82
2023-02-19T11:42:41.007Z,10.81
2023-02-19T11:45:33.352Z,10.74
2023-02-19T11:48:30.298Z,10.78
2023-02-19T11:51:09.587Z,10.74
2023-02-19T11:54:03.056Z,10.71
2023-02-19T11:56:37.100Z,10.67
2023-02-19T11:59:08.618Z,10.63
2023-02-19T12:01:56.441Z,10.67
2023-02-19T12:05:03.965Z,10.63
2023-02-19T12:07:53.084Z,10.66
2023-02-19T12:11:01.113Z,10.69
2023-02-19T12:13:53.904Z,10.73
2023-02-19T12:17:10.127Z,10.76
2023-02-19T12:20:03.551Z,10.71
2023-02-19T12:22:40.966Z,10.67
2023-02-19T12:25:10.769Z,10.56
2023-02-19T12:27:55.864Z,10.38
2023-02-19T12:31:03.817Z,10.28
2023-02-19T12:33:53.761Z,10.24
2023-02-19T12:37:04.444Z,10.21
2023-02-19T12:39:56.277Z,10.21
2023-02-19T12:42:35.195Z,10.17
2023-02-19T12:45:43.963Z,10.17
2023-02-19T13:00:50.540Z,10.95
2023-02-19T13:03:40.192Z,10.94
2023-02-19T13:06:33.320Z,10.97
2023-02-19T13:09:11.291Z,10.97
2023-02-19T13:11:56.765Z,10.88
2023-02-19T13:14:49.491Z,10.84
2023-02-19T13:17:39.120Z,10.79
2023-02-19T13:20:34.881Z,10.69
2023-02-19T13:23:41.815Z,10.66
2023-02-19T14:20:45.564Z,9.03
2023-02-19T14:23:25.010Z,9.13
2023-02-19T14:26:02.394Z,9.29
2023-02-19T14:28:44.635Z,9.31
2023-02-19T14:31:26.945Z,9.33
2023-02-19T14:33:58.625Z,9.28
2023-02-19T14:36:51.996Z,9.36
2023-02-19T14:39:28.764Z,9.45
2023-02-19T14:42:07.367Z,9.37
2023-02-19T14:44:58.175Z,9.33
2023-02-19T14:47:27.848Z,9.19
2023-02-19T14:50:09.812Z,8.97
2023-02-19T14:52:43.498Z,8.71
2023-02-19T14:55:17.885Z,8.45
2023-02-19T14:57:48.112Z,8.16
2023-02-19T15:00:22.945Z,8.04
2023-02-19T15:02:52.953Z,7.90
2023-02-19T15:05:28.768Z,7.81
2023-02-19T15:08:00.095Z,7.77
2023-02-19T15:10:29.684Z,7.62
2023-02-19T15:13:06.913Z,7.60
2023-02-19T15:15:39.936Z,7.61
2023-02-19T15:18:07.219Z,7.54
2023-02-19T15:20:37.245Z,7.57
2023-02-19T15:23:07.700Z,7.54
2023-02-19T15:25:38.159Z,7.52
2023-02-19T15:28:23.995Z,7.53
2023-02-19T15:31:07.711Z,7.48
2023-02-19T15:33:35.018Z,7.41
2023-02-19T15:36:06.542Z,7.45
2023-02-19T15:38:34.708Z,7.48
2023-02-19T15:41:01.998Z,7.57
2023-02-19T15:43:44.378Z,7.57
2023-02-19T15:46:24.930Z,7.59
2023-02-19T15:49:14.915Z,7.50
2023-02-19T15:51:47.694Z,7.54
2023-02-19T15:54:31.229Z,7.57
2023-02-19T15:57:06.988Z,7.52
2023-02-19T15:59:50.270Z,7.59
2023-02-19T16:02:17.582Z,7.50
2023-02-19T16:04:45.730Z,7.43
2023-02-19T16:07:27.474Z,7.49
2023-02-19T16:10:24.138Z,7.50
2023-02-19T16:13:03.135Z,7.57
2023-02-19T16:15:32.783Z,7.56
2023-02-19T16:18:00.371Z,7.57
2023-02-19T16:20:33.843Z,7.60
2023-02-19T16:23:13.117Z,7.64
2023-02-19T16:25:46.416Z,7.68
2023-02-19T16:28:22.041Z,7.72
2023-02-19T16:31:00.450Z,7.76
2023-02-19T16:33:49.286Z,7.73
2023-02-19T16:36:41.662Z,7.71
2023-02-19T16:39:09.105Z,7.75
2023-02-19T16:41:48.287Z,7.74
2023-02-19T16:44:21.596Z,7.75
2023-02-19T16:46:53.879Z,7.75
2023-02-19T16:49:22.684Z,7.77
2023-02-19T16:51:50.986Z,7.78
2023-02-19T16:54:18.160Z,7.82
2023-02-19T16:56:45.184Z,7.82
2023-02-19T16:59:12.102Z,7.82
2023-02-19T17:01:39.417Z,7.85
2023-02-19T17:04:11.508Z,7.84
2023-02-19T17:06:39.410Z,7.90
2023-02-19T17:09:08.503Z,7.91
2023-02-19T17:11:36.330Z,7.92
2023-02-19T17:14:03.526Z,7.89
2023-02-19T17:16:40.122Z,7.95
2023-02-19T17:19:17.011Z,8.00
2023-02-19T17:21:45.392Z,8.05
2023-02-19T17:24:13.343Z,8.05
2023-02-19T17:26:40.282Z,8.09
2023-02-19T17:29:13.983Z,8.15
2023-02-19T17:31:41.142Z,8.17
2023-02-19T17:34:08.546Z,8.21
2023-02-19T17:36:37.825Z,8.18
2023-02-19T17:39:11.954Z,8.16
2023-02-19T17:41:38.972Z,8.14
2023-02-19T17:44:05.904Z,8.16
2023-02-19T17:46:33.902Z,8.18
2023-02-19T17:49:00.944Z,8.18
2023-02-19T17:51:28.071Z,8.21
2023-02-19T17:53:55.072Z,8.20
2023-02-19T17:56:27.936Z,8.17
2023-02-19T17:58:56.720Z,8.20
2023-02-19T18:01:24.220Z,8.19
2023-02-19T18:03:51.940Z,8.19
2023-02-19T18:06:19.740Z,8.24
2023-02-19T18:08:52.482Z,8.23
2023-02-19T18:11:24.798Z,8.27
2023-02-19T18:13:52.421Z,8.24
2023-02-19T18:16:20.283Z,8.25
2023-02-19T18:18:47.304Z,8.21
2023-02-19T18:21:14.569Z,8.21
2023-02-19T18:23:42.384Z,8.19
2023-02-19T18:26:11.230Z,8.18
2023-02-19T18:28:40.115Z,8.16
2023-02-19T18:31:07.561Z,8.17
2023-02-19T18:33:35.348Z,8.15
2023-02-19T18:36:02.647Z,8.13
2023-02-19T18:38:29.801Z,8.16
2023-02-19T18:40:58.670Z,8.10
2023-02-19T18:43:26.210Z,8.11
2023-02-19T18:45:53.455Z,8.15
2023-02-19T18:48:20.409Z,8.13
2023-02-19T18:50:47.713Z,8.15
2023-02-19T18:53:14.912Z,8.17
2023-02-19T18:55:41.947Z,8.22
2023-02-19T18:58:08.938Z,8.23
2023-02-19T19:00:36.286Z,8.18
2023-02-19T19:03:03.297Z,8.18
2023-02-19T19:05:30.389Z,8.20
2023-02-19T19:07:59.428Z,8.13
2023-02-19T19:10:28.568Z,8.12
2023-02-19T19:12:55.938Z,8.12
2023-02-19T19:15:23.869Z,8.06
2023-02-19T19:17:50.955Z,8.07
2023-02-19T19:20:20.518Z,8.07
2023-02-19T19:22:52.621Z,8.13
2023-02-19T19:25:21.627Z,8.13
2023-02-19T19:27:50.758Z,8.08
2023-02-19T19:30:20.170Z,8.10
2023-02-19T19:32:52.478Z,8.14
2023-02-19T19:35:21.193Z,8.10
2023-02-19T19:37:48.730Z,8.11
2023-02-19T19:40:17.948Z,8.04
2023-02-19T19:42:45.110Z,7.96
2023-02-19T19:45:13.806Z,7.94
2023-02-19T19:47:40.957Z,7.86
2023-02-19T19:50:08.388Z,7.80
2023-02-19T19:52:35.463Z,7.69
2023-02-19T19:55:02.656Z,7.73
2023-02-19T19:57:29.667Z,7.63
2023-02-19T19:59:56.560Z,7.63
2023-02-19T20:02:23.922Z,7.65
2023-02-19T20:04:50.900Z,7.65
2023-02-19T20:07:18.018Z,7.68
2023-02-19T20:09:49.471Z,7.64
2023-02-19T20:12:17.414Z,7.64
2023-02-19T20:14:46.311Z,7.64
2023-02-19T20:17:13.995Z,7.63
2023-02-19T20:19:41.205Z,7.61
2023-02-19T20:22:08.200Z,7.59
2023-02-19T20:24:35.136Z,7.58
2023-02-19T20:27:02.649Z,7.55
2023-02-19T20:29:34.314Z,7.50
2023-02-19T20:32:03.655Z,7.47
2023-02-19T20:34:31.419Z,7.43
2023-02-19T20:36:58.928Z,7.43
2023-02-19T20:39:28.999Z,7.47
2023-02-19T20:41:57.387Z,7.51
2023-02-19T20:44:27.109Z,7.53
2023-02-19T20:46:55.200Z,7.57
2023-02-19T20:49:26.464Z,7.59
2023-02-19T20:52:01.779Z,7.58
2023-02-19T20:54:32.163Z,7.59
2023-02-19T20:57:02.502Z,7.57
2023-02-19T20:59:35.328Z,7.63
2023-02-19T21:02:11.283Z,7.63
2023-02-19T21:04:39.378Z,7.67
2023-02-19T21:07:06.761Z,7.71
2023-02-19T21:09:33.817Z,7.71
2023-02-19T21:12:00.800Z,7.74
2023-02-19T21:14:27.780Z,7.79
2023-02-19T21:16:54.719Z,7.77
2023-02-19T21:19:22.235Z,7.79
2023-02-19T21:21:49.331Z,7.80
2023-02-19T21:24:16.575Z,7.81
2023-02-19T21:26:44.749Z,7.85
2023-02-19T21:29:19.444Z,7.85
2023-02-19T21:31:49.995Z,7.92
2023-02-19T21:34:21.471Z,7.92
2023-02-19T21:36:48.749Z,7.91
2023-02-19T21:39:19.405Z,7.98
2023-02-19T21:41:47.062Z,7.96
2023-02-19T21:44:14.422Z,7.99
2023-02-19T21:46:41.652Z,7.97
2023-02-19T21:49:09.168Z,7.95
2023-02-19T21:51:39.779Z,7.94
2023-02-19T21:54:08.378Z,7.91
2023-02-19T21:56:36.766Z,7.88
2023-02-19T21:59:04.522Z,7.82
2023-02-19T22:01:38.572Z,7.78
2023-02-19T22:04:08.507Z,7.79
2023-02-19T22:06:35.582Z,7.76
2023-02-19T22:09:03.208Z,7.71
2023-02-19T22:11:30.269Z,7.64
2023-02-19T22:13:57.218Z,7.62
2023-02-19T22:16:24.387Z,7.58
2023-02-19T22:18:58.160Z,7.58
2023-02-19T22:21:29.118Z,7.58
2023-02-19T22:23:56.349Z,7.53
2023-02-19T22:26:28.195Z,7.52
2023-02-19T22:28:55.744Z,7.55
2023-02-19T22:31:24.930Z,7.54
2023-02-19T22:33:53.142Z,7.54
2023-02-19T22:36:30.891Z,7.55
2023-02-19T22:38:58.052Z,7.58
2023-02-19T22:41:25.753Z,7.51
2023-02-19T22:43:55.965Z,7.44
2023-02-19T22:46:25.732Z,7.42
2023-02-19T22:48:52.788Z,7.44
2023-02-19T22:51:22.923Z,7.45
2023-02-19T22:53:54.189Z,7.42
2023-02-19T22:56:25.484Z,7.46
2023-02-19T22:58:53.720Z,7.39
2023-02-19T23:01:21.438Z,7.35
2023-02-19T23:04:01.049Z,7.29
2023-02-19T23:06:31.662Z,7.29
2023-02-19T23:09:04.323Z,7.34
2023-02-19T23:11:35.196Z,7.30
2023-02-19T23:14:03.420Z,7.34
2023-02-19T23:16:32.912Z,7.29
2023-02-19T23:18:59.991Z,7.32
2023-02-19T23:21:27.242Z,7.30
2023-02-19T23:23:54.183Z,7.28
2023-02-19T23:26:21.196Z,7.28
2023-02-19T23:28:48.400Z,7.17
2023-02-19T23:31:16.148Z,7.20
2023-02-19T23:33:44.128Z,7.18
2023-02-19T23:36:13.057Z,7.22
2023-02-19T23:38:40.563Z,7.21
2023-02-19T23:41:12.662Z,7.25
2023-02-19T23:43:39.990Z,7.20
2023-02-19T23:46:07.389Z,7.28
2023-02-19T23:48:34.908Z,7.24
2023-02-19T23:51:01.916Z,7.28
2023-02-19T23:53:28.919Z,7.31
2023-02-19T23:55:56.208Z,7.32
2023-02-19T23:58:23.289Z,7.37
